Time;durP1;ratioP1;P1;durP2;ratioP2;P2;SDS_P1;SDS_P2;PMS_P1;PMS_P2;Temp;Humidity;BMP_temperature;BMP_pressure;BME280_temperature;BME280_humidity;BME280_pressure;Samples;Min_cycle;Max_cycle;Signal;HPM_P1;HPM_P2
2022/07/12 00:02:18;;;;;;;;;1.75;1.75;;;;;25.34;45.03;101837.94;5097072;27;45894;-59
2022/07/12 00:04:44;;;;;;;;;3.75;1.75;;;;;25.31;44.75;101843.81;5097368;27;45384;-59
2022/07/12 00:07:10;;;;;;;;;3.75;2.00;;;;;25.31;44.86;101840.25;5096598;27;46282;-58
2022/07/12 00:09:36;;;;;;;;;3.80;2.20;;;;;25.29;43.21;101837.75;5096714;27;45539;-55
2022/07/12 00:12:01;;;;;;;;;3.00;1.75;;;;;25.22;43.92;101828.78;5096781;27;45334;-59
2022/07/12 00:14:26;;;;;;;;;3.25;3.25;;;;;25.18;45.54;101827.56;5096956;27;45512;-58
2022/07/12 00:16:52;;;;;;;;;4.50;2.25;;;;;25.17;45.28;101825.88;5096965;27;45360;-60
2022/07/12 00:19:18;;;;;;;;;3.25;2.00;;;;;25.11;45.51;101816.72;5100284;27;45394;-60
2022/07/12 00:21:43;;;;;;;;;4.00;3.00;;;;;25.08;45.22;101822.56;5102601;27;45259;-58
2022/07/12 00:24:09;;;;;;;;;2.00;1.25;;;;;25.05;44.89;101822.97;5102022;27;45463;-56
2022/07/12 00:26:35;;;;;;;;;2.00;2.00;;;;;25.05;45.56;101820.25;5100961;27;45234;-59
2022/07/12 00:29:00;;;;;;;;;2.00;2.00;;;;;25.00;45.68;101821.97;5100186;27;45322;-56
2022/07/12 00:31:25;;;;;;;;;5.00;3.00;;;;;24.98;45.56;101833.03;5099656;27;45162;-59
2022/07/12 00:33:51;;;;;;;;;4.50;3.00;;;;;24.95;45.54;101828.06;5099263;27;45359;-60
2022/07/12 00:36:17;;;;;;;;;3.00;2.20;;;;;24.91;45.18;101826.81;5100284;27;46148;-60
2022/07/12 00:38:42;;;;;;;;;2.50;2.50;;;;;24.89;46.17;101828.91;5099914;27;45472;-60
2022/07/12 00:41:07;;;;;;;;;5.00;2.25;;;;;24.85;45.54;101831.22;5100174;27;45190;-60
2022/07/12 00:43:33;;;;;;;;;3.50;3.50;;;;;24.83;46.03;101829.78;5100226;27;45227;-60
2022/07/12 00:45:58;;;;;;;;;3.25;3.25;;;;;24.82;46.49;101822.66;5099436;27;46689;-58
2022/07/12 00:48:24;;;;;;;;;2.75;2.75;;;;;24.73;46.24;101799.44;5099910;27;45319;-60
2022/07/12 00:50:49;;;;;;;;;3.25;1.75;;;;;24.80;46.02;101824.75;5099890;27;45213;-61
2022/07/12 00:53:16;;;;;;;;;4.00;4.00;;;;;24.69;46.55;101803.63;5100188;27;45548;-61
2022/07/12 00:55:41;;;;;;;;;2.40;2.40;;;;;24.78;46.59;101815.97;5099497;27;45439;-59
2022/07/12 00:58:07;;;;;;;;;2.75;2.75;;;;;24.72;47.02;101809.50;5099686;27;45406;-59
2022/07/12 01:00:32;;;;;;;;;3.50;3.00;;;;;24.75;46.67;101822.69;5098522;27;45378;-57
2022/07/12 01:03:00;;;;;;;;;3.00;3.00;;;;;24.72;46.76;101814.94;5100060;27;45485;-57
2022/07/12 01:05:29;;;;;;;;;2.00;2.00;;;;;24.70;45.85;101814.34;5099457;27;47207;-58
2022/07/12 01:07:56;;;;;;;;;3.40;3.40;;;;;24.69;46.67;101811.81;5099618;27;45492;-59
2022/07/12 01:10:22;;;;;;;;;2.00;2.00;;;;;24.64;46.63;101805.13;5099693;27;45378;-58
2022/07/12 01:12:48;;;;;;;;;3.25;3.25;;;;;24.60;46.67;101806.59;5099748;27;45465;-57
2022/07/12 01:15:14;;;;;;;;;2.40;2.40;;;;;24.59;47.05;101817.69;5099037;27;45497;-60
2022/07/12 01:17:40;;;;;;;;;2.50;1.50;;;;;24.57;46.80;101817.94;5099254;27;45376;-57
2022/07/12 01:20:06;;;;;;;;;4.60;4.00;;;;;24.54;46.82;101820.22;5099366;27;45346;-56
2022/07/12 01:22:34;;;;;;;;;3.80;2.80;;;;;24.52;46.81;101823.16;5099613;27;45391;-61
2022/07/12 01:25:02;;;;;;;;;2.80;2.60;;;;;24.50;47.01;101821.72;5099310;27;46246;-61
2022/07/12 01:27:28;;;;;;;;;2.80;2.80;;;;;24.49;46.97;101822.75;5099135;27;45352;-60
2022/07/12 01:29:54;;;;;;;;;4.20;3.60;;;;;24.45;47.52;101811.47;5098354;27;45256;-59
2022/07/12 01:32:26;;;;;;;;;3.40;3.00;;;;;24.42;46.65;101800.16;5098971;27;45460;-61
2022/07/12 01:34:54;;;;;;;;;3.20;2.80;;;;;24.40;46.82;101808.56;5098811;27;46359;-59
2022/07/12 01:37:22;;;;;;;;;4.20;4.20;;;;;24.38;47.62;101814.19;5099131;27;45488;-59
2022/07/12 01:39:51;;;;;;;;;2.20;2.20;;;;;24.36;47.34;101810.00;5099044;27;45239;-60
2022/07/12 01:42:17;;;;;;;;;4.80;3.40;;;;;24.34;47.85;101804.75;5099073;27;45378;-58
2022/07/12 01:44:42;;;;;;;;;4.00;4.00;;;;;24.34;47.85;101809.34;5099013;27;45391;-60
2022/07/12 01:47:08;;;;;;;;;3.75;3.75;;;;;24.33;47.78;101810.41;5098670;27;45455;-59
2022/07/12 01:49:33;;;;;;;;;5.00;4.50;;;;;24.29;47.17;101803.72;5098935;27;45278;-58
2022/07/12 01:51:59;;;;;;;;;4.75;3.25;;;;;24.16;48.42;101788.25;5098914;27;45424;-61
2022/07/12 01:54:25;;;;;;;;;5.00;3.75;;;;;24.26;47.91;101804.13;5098222;27;45524;-61
2022/07/12 01:56:54;;;;;;;;;4.20;3.80;;;;;24.22;48.20;101811.03;5098735;27;45275;-60
2022/07/12 01:59:20;;;;;;;;;5.00;5.00;;;;;24.19;48.39;101815.03;5098599;27;45383;-60
2022/07/12 02:01:46;;;;;;;;;4.00;3.00;;;;;24.15;47.47;101811.06;5098952;27;45517;-58
2022/07/12 02:04:12;;;;;;;;;3.40;3.40;;;;;24.12;48.91;101812.31;5098502;27;45291;-61
2022/07/12 02:06:38;;;;;;;;;1.75;1.75;;;;;24.08;47.54;101805.63;5098493;27;45412;-60
2022/07/12 02:09:04;;;;;;;;;3.60;3.60;;;;;24.02;48.22;101808.34;5098629;27;45285;-58
2022/07/12 02:11:30;;;;;;;;;3.00;3.00;;;;;23.89;48.38;101793.72;5098723;27;45427;-58
2022/07/12 02:13:56;;;;;;;;;5.00;3.20;;;;;23.98;48.95;101805.22;5098444;27;45293;-57
2022/07/12 02:16:21;;;;;;;;;4.00;4.00;;;;;23.94;48.87;101795.81;5098299;27;45147;-57
2022/07/12 02:18:47;;;;;;;;;3.75;3.75;;;;;23.98;49.10;101807.94;5098357;27;45406;-58
2022/07/12 02:21:12;;;;;;;;;4.25;3.50;;;;;23.96;49.25;101810.03;5098750;27;45375;-57
2022/07/12 02:23:38;;;;;;;;;5.00;3.50;;;;;23.95;49.24;101810.25;5098495;27;45376;-60
2022/07/12 02:26:03;;;;;;;;;4.75;3.50;;;;;23.98;48.95;101820.69;5098065;27;45167;-56
2022/07/12 02:28:29;;;;;;;;;4.00;4.00;;;;;23.98;49.13;101815.25;5098262;27;45283;-62
2022/07/12 02:30:54;;;;;;;;;3.00;3.00;;;;;23.96;49.11;101815.47;5098412;27;45438;-57
2022/07/12 02:33:20;;;;;;;;;3.50;3.25;;;;;23.99;49.37;101816.94;5097842;27;45354;-59
2022/07/12 02:35:46;;;;;;;;;5.75;4.00;;;;;23.95;49.26;101811.06;5097928;27;45265;-58
2022/07/12 02:38:11;;;;;;;;;4.20;4.20;;;;;23.93;48.96;101821.31;5098063;27;45408;-56
2022/07/12 02:40:55;;;;;;;;;5.00;5.00;;;;;23.84;49.27;101808.97;5098056;27;45326;-59
2022/07/12 02:43:27;;;;;;;;;4.20;4.20;;;;;23.86;49.08;101806.91;5097888;27;45515;-61
2022/07/12 02:45:56;;;;;;;;;6.60;5.80;;;;;23.81;49.25;101801.25;5097613;27;45231;-57
2022/07/12 02:48:21;;;;;;;;;5.80;3.80;;;;;23.82;49.54;101806.47;5098030;27;45320;-62
2022/07/12 02:50:48;;;;;;;;;3.25;3.25;;;;;23.86;48.35;101817.78;5096898;27;45568;-61
2022/07/12 02:53:14;;;;;;;;;5.00;5.00;;;;;23.81;49.47;101807.53;5097733;27;45840;-60
2022/07/12 02:55:39;;;;;;;;;3.25;3.25;;;;;23.76;49.22;101811.88;5097769;27;45420;-60
2022/07/12 02:58:08;;;;;;;;;6.00;6.00;;;;;23.77;49.39;101817.13;5097982;27;45162;-59
2022/07/12 03:00:35;;;;;;;;;6.00;4.80;;;;;23.76;49.64;101820.03;5097904;27;45445;-59
2022/07/12 03:03:03;;;;;;;;;5.00;5.00;;;;;23.67;49.22;101810.44;5097522;27;45466;-54
2022/07/12 03:05:29;;;;;;;;;5.00;5.00;;;;;23.75;49.56;101821.09;5097592;27;45451;-59
2022/07/12 03:07:55;;;;;;;;;5.25;4.25;;;;;23.76;50.07;101823.59;5097916;27;45347;-61
2022/07/12 03:10:20;;;;;;;;;5.00;4.25;;;;;23.71;49.92;101819.84;5097847;27;45259;-60
2022/07/12 03:12:45;;;;;;;;;3.75;3.75;;;;;23.73;50.29;101824.03;5097458;27;45824;-59
2022/07/12 03:15:11;;;;;;;;;7.50;5.00;;;;;23.72;50.03;101832.38;5097332;27;45304;-60
2022/07/12 03:17:36;;;;;;;;;5.75;4.50;;;;;23.70;49.83;101823.59;5097557;27;45209;-59
2022/07/12 03:20:05;;;;;;;;;4.75;4.75;;;;;23.64;49.89;101817.94;5097956;27;45215;-60
2022/07/12 03:22:30;;;;;;;;;5.00;5.00;;;;;23.72;49.97;101829.66;5097363;27;46011;-60
2022/07/12 03:24:56;;;;;;;;;5.00;4.50;;;;;23.70;49.95;101829.03;5097308;27;45394;-60
2022/07/12 03:27:21;;;;;;;;;4.00;4.00;;;;;23.63;49.93;101821.66;5097646;27;45386;-59
2022/07/12 03:29:47;;;;;;;;;6.00;5.25;;;;;23.68;49.93;101822.97;5097690;27;45243;-58
2022/07/12 03:32:12;;;;;;;;;6.00;4.75;;;;;23.64;49.90;101823.38;5097043;27;46000;-61
2022/07/12 03:34:37;;;;;;;;;4.00;4.00;;;;;23.63;49.62;101821.66;5097167;27;45477;-61
2022/07/12 03:37:03;;;;;;;;;4.50;4.50;;;;;23.67;49.86;101829.44;5097556;27;45314;-62
2022/07/12 03:39:29;;;;;;;;;4.00;3.25;;;;;23.67;49.64;101826.72;5097438;27;45470;-59
2022/07/12 03:41:54;;;;;;;;;5.50;4.25;;;;;23.63;49.84;101829.81;5097122;27;46028;-61
2022/07/12 03:44:20;;;;;;;;;5.25;5.25;;;;;23.62;49.70;101824.59;5097154;27;45296;-59
2022/07/12 03:46:47;;;;;;;;;4.00;4.00;;;;;23.61;49.34;101834.63;5097249;27;45315;-58
2022/07/12 03:49:13;;;;;;;;;3.40;3.40;;;;;23.57;49.60;101835.25;5097265;27;45227;-56
2022/07/12 03:51:38;;;;;;;;;5.25;4.75;;;;;23.55;49.57;101831.88;5097186;27;46146;-60
2022/07/12 03:54:05;;;;;;;;;5.75;4.75;;;;;23.53;49.56;101829.41;5099953;27;45141;-58
2022/07/12 03:59:14;;;;;;;;;4.00;4.00;;;;;23.49;49.94;101847.16;5100013;27;45359;-60
2022/07/12 04:01:39;;;;;;;;;4.00;4.00;;;;;23.48;49.99;101847.34;5100525;27;45892;-59
2022/07/12 04:04:05;;;;;;;;;4.00;4.00;;;;;23.45;50.15;101842.31;5100337;27;45229;-60
2022/07/12 04:06:30;;;;;;;;;7.00;5.50;;;;;23.43;50.03;101847.97;5100811;27;45317;-60
2022/07/12 04:08:55;;;;;;;;;4.00;4.00;;;;;23.42;49.74;101849.00;5100605;27;45408;-59
2022/07/12 04:11:21;;;;;;;;;5.00;5.00;;;;;23.37;49.84;101848.78;5100377;27;46327;-59
2022/07/12 04:13:46;;;;;;;;;6.25;4.75;;;;;23.33;50.52;101855.66;5100333;27;45422;-58
2022/07/12 04:16:12;;;;;;;;;4.00;4.00;;;;;23.34;50.37;101851.91;5100415;27;45379;-56
2022/07/12 04:18:38;;;;;;;;;8.75;6.00;;;;;23.34;50.61;101857.31;5100467;27;45489;-56
2022/07/12 04:21:03;;;;;;;;;5.50;4.25;;;;;23.35;50.48;101864.44;5099880;27;47130;-60
2022/07/12 04:23:28;;;;;;;;;6.00;5.00;;;;;23.32;50.48;101862.13;5100206;27;45478;-57
2022/07/12 04:25:54;;;;;;;;;4.50;4.00;;;;;23.30;50.58;101861.50;5100367;27;45362;-56
2022/07/12 04:28:19;;;;;;;;;5.50;5.50;;;;;23.32;50.58;101867.56;5099254;27;45375;-58
2022/07/12 04:30:46;;;;;;;;;5.00;5.00;;;;;23.31;50.73;101865.91;5099992;27;46201;-58
2022/07/12 04:33:12;;;;;;;;;6.80;5.40;;;;;23.29;50.42;101860.66;5099610;27;45481;-58
2022/07/12 04:35:37;;;;;;;;;4.00;3.50;;;;;23.28;50.71;101869.00;5099834;27;45256;-57
2022/07/12 04:38:03;;;;;;;;;5.25;4.25;;;;;23.23;50.77;101871.50;5100331;27;45534;-57
2022/07/12 04:40:29;;;;;;;;;7.00;5.25;;;;;23.23;50.84;101869.63;5099924;27;45432;-55
2022/07/12 04:42:54;;;;;;;;;6.75;5.25;;;;;23.13;51.11;101861.00;5100063;27;45278;-54
2022/07/12 04:45:20;;;;;;;;;3.75;3.75;;;;;23.13;51.02;101866.44;5100075;27;45281;-57
2022/07/12 04:47:45;;;;;;;;;4.00;4.00;;;;;23.13;51.17;101870.00;5100061;27;45439;-59
2022/07/12 04:50:11;;;;;;;;;4.75;4.75;;;;;23.09;51.24;101863.31;5100012;27;45543;-61
2022/07/12 04:52:36;;;;;;;;;5.75;5.00;;;;;23.10;51.37;101867.69;5099730;27;45318;-58
2022/07/12 04:55:02;;;;;;;;;6.00;4.25;;;;;23.08;51.21;101872.47;5099688;27;45453;-58
2022/07/12 04:57:28;;;;;;;;;4.00;4.00;;;;;23.05;51.05;101864.75;5100104;27;45382;-59
2022/07/12 04:59:53;;;;;;;;;8.50;6.00;;;;;23.09;50.82;101878.72;5099683;27;46279;-60
2022/07/12 05:02:19;;;;;;;;;8.25;6.00;;;;;23.06;50.49;101882.72;5099651;27;45319;-57
2022/07/12 05:04:44;;;;;;;;;4.00;4.00;;;;;23.04;50.85;101879.34;5099597;27;45465;-57
2022/07/12 05:07:10;;;;;;;;;5.25;4.75;;;;;23.02;51.39;101883.31;5099839;27;45377;-57
2022/07/12 05:09:35;;;;;;;;;5.75;5.75;;;;;22.98;51.26;101874.72;5099174;27;47233;-58
2022/07/12 05:12:01;;;;;;;;;4.50;4.50;;;;;23.05;51.48;101896.47;5099376;27;45346;-60
2022/07/12 05:14:26;;;;;;;;;7.00;5.75;;;;;23.09;51.50;101892.31;5099504;27;45285;-55
2022/07/12 05:16:51;;;;;;;;;7.00;6.00;;;;;23.04;51.42;101886.66;5099562;27;45340;-59
2022/07/12 05:19:17;;;;;;;;;5.00;4.50;;;;;23.13;50.61;101899.88;5099852;27;46193;-61
2022/07/12 05:21:42;;;;;;;;;6.25;5.50;;;;;23.18;51.08;101901.97;5099325;27;45362;-58
2022/07/12 05:24:08;;;;;;;;;6.50;5.50;;;;;23.14;51.10;101885.25;5099706;27;45354;-60
2022/07/12 05:26:34;;;;;;;;;7.50;5.50;;;;;23.27;50.97;101903.47;5099539;27;45418;-59
2022/07/12 05:29:00;;;;;;;;;6.00;6.00;;;;;23.34;50.28;101900.75;5098938;27;47114;-59
2022/07/12 05:31:26;;;;;;;;;5.75;5.00;;;;;23.30;50.45;101897.66;5098984;27;45293;-60
2022/07/12 05:33:52;;;;;;;;;4.40;4.20;;;;;23.37;50.35;101903.09;5099790;27;45485;-61
2022/07/12 05:36:17;;;;;;;;;5.00;5.00;;;;;23.24;49.73;101884.03;5099325;27;45333;-60
2022/07/12 05:38:42;;;;;;;;;5.00;5.00;;;;;23.40;50.23;101910.84;5098896;27;45402;-60
2022/07/12 05:41:08;;;;;;;;;7.00;5.75;;;;;23.42;50.33;101912.28;5099056;27;45312;-61
2022/07/12 05:43:34;;;;;;;;;6.75;6.75;;;;;23.44;50.49;101916.69;5099236;27;45421;-61
2022/07/12 05:45:59;;;;;;;;;5.25;5.25;;;;;23.51;50.34;101918.41;5099223;27;45287;-60
2022/07/12 05:48:26;;;;;;;;;6.00;6.00;;;;;23.57;50.30;101914.03;5098909;27;46632;-59
2022/07/12 05:50:51;;;;;;;;;7.40;6.80;;;;;23.61;50.17;101918.84;5098712;27;45382;-60
2022/07/12 05:53:22;;;;;;;;;8.00;5.00;;;;;23.64;49.57;101920.31;5097526;27;45434;-58
2022/07/12 05:55:52;;;;;;;;;5.25;5.25;;;;;23.61;49.63;101916.13;5098840;27;45325;-60
2022/07/12 05:58:19;;;;;;;;;5.00;5.00;;;;;23.70;49.61;101927.66;5098615;27;47219;-56
2022/07/12 06:00:46;;;;;;;;;10.60;7.80;;;;;23.60;49.74;101914.47;5098774;27;45354;-56
2022/07/12 06:03:13;;;;;;;;;10.60;6.20;;;;;23.65;49.55;101933.72;5098485;27;45410;-68
2022/07/12 06:05:38;;;;;;;;;6.00;6.00;;;;;23.62;49.45;101930.53;5098688;27;45421;-63
2022/07/12 06:08:04;;;;;;;;;8.50;6.00;;;;;23.61;49.76;101940.56;5114215;27;47624;-66
2022/07/12 06:10:29;;;;;;;;;7.25;6.00;;;;;23.61;50.19;101935.13;5098523;27;45310;-65
2022/07/12 06:12:54;;;;;;;;;6.75;5.50;;;;;23.68;50.13;101939.78;5098247;27;45305;-67
2022/07/12 06:15:20;;;;;;;;;7.50;6.25;;;;;23.73;49.66;101942.75;5098146;27;45525;-67
2022/07/12 06:17:45;;;;;;;;;7.00;6.75;;;;;23.73;50.05;101942.75;5098187;27;46382;-67
2022/07/12 06:20:11;;;;;;;;;6.25;6.00;;;;;23.73;50.05;101940.03;5098266;27;45406;-67
2022/07/12 06:22:36;;;;;;;;;7.50;6.25;;;;;23.73;49.68;101942.75;5098323;27;45274;-66
2022/07/12 06:25:02;;;;;;;;;8.00;6.00;;;;;23.73;50.05;101946.28;5098322;27;45318;-67
2022/07/12 06:27:28;;;;;;;;;6.50;5.75;;;;;23.75;49.68;101944.19;5098144;27;46295;-65
2022/07/12 06:29:53;;;;;;;;;7.25;6.00;;;;;23.78;50.18;101942.97;5098062;27;45305;-66
2022/07/12 06:32:18;;;;;;;;;7.00;7.00;;;;;23.86;49.72;101940.06;5098025;27;45310;-67
2022/07/12 06:34:44;;;;;;;;;6.25;6.25;;;;;23.81;49.57;101924.38;5098214;27;45525;-66
2022/07/12 06:37:10;;;;;;;;;6.75;6.75;;;;;24.02;48.71;101947.81;5097926;27;45426;-65
2022/07/12 06:39:36;;;;;;;;;9.00;6.50;;;;;24.10;49.36;101942.19;5098012;27;45304;-64
2022/07/12 06:42:03;;;;;;;;;7.25;7.25;;;;;24.24;49.32;101947.63;5098291;27;45534;-66
2022/07/12 06:44:30;;;;;;;;;7.75;6.75;;;;;24.43;48.88;101944.09;5098054;27;45208;-67
2022/07/12 06:46:56;;;;;;;;;7.40;7.40;;;;;24.72;48.23;101933.84;5097846;27;45343;-65
2022/07/12 06:49:22;;;;;;;;;8.75;7.00;;;;;25.16;47.88;101945.91;5097617;27;45427;-64
2022/07/12 06:51:47;;;;;;;;;4.00;4.00;;;;;25.42;47.41;101948.53;5097781;27;45181;-65
2022/07/12 06:54:12;;;;;;;;;8.00;6.00;;;;;25.70;45.94;101944.63;5098127;27;45299;-66
2022/07/12 06:56:38;;;;;;;;;6.00;6.00;;;;;26.10;45.66;101946.09;5097439;27;47119;-62
2022/07/12 06:59:03;;;;;;;;;7.00;7.00;;;;;26.60;43.88;101954.31;5113227;27;45384;-66
2022/07/12 07:01:29;;;;;;;;;7.25;7.00;;;;;26.98;44.46;101956.03;5096277;27;45293;-62
2022/07/12 07:03:54;;;;;;;;;3.75;3.75;;;;;27.44;42.76;101948.41;5097665;27;45406;-66
2022/07/12 07:06:19;;;;;;;;;4.50;4.50;;;;;28.07;41.68;101937.03;5097503;27;45331;-62
2022/07/12 07:08:45;;;;;;;;;7.25;7.25;;;;;28.82;40.06;101944.56;5097443;27;45430;-67
2022/07/12 07:11:10;;;;;;;;;11.50;6.75;;;;;29.61;38.67;101944.09;5096174;27;45197;-64
2022/07/12 07:13:35;;;;;;;;;10.75;6.00;;;;;30.22;41.02;101940.59;5097725;27;45482;-63
2022/07/12 07:16:01;;;;;;;;;7.50;7.25;;;;;30.73;36.27;101940.56;5097456;27;46367;-56
2022/07/12 07:18:27;;;;;;;;;7.50;5.00;;;;;31.35;34.94;101950.47;5097078;27;45550;-56
2022/07/12 07:20:52;;;;;;;;;6.00;5.40;;;;;31.86;36.47;101942.78;5097300;27;45606;-57
2022/07/12 07:23:18;;;;;;;;;6.00;5.00;;;;;32.36;33.53;101942.41;5097421;27;45538;-57
2022/07/12 07:25:45;;;;;;;;;6.50;5.75;;;;;33.51;31.09;101938.97;5096972;27;45360;-56
2022/07/12 07:28:11;;;;;;;;;5.40;5.40;;;;;35.33;29.42;101943.78;5099266;27;45288;-57
2022/07/12 07:30:54;;;;;;;;;6.75;4.25;;;;;36.92;26.97;101942.28;5100917;27;45328;-56
2022/07/12 07:33:24;;;;;;;;;6.00;6.00;;;;;38.59;25.41;101940.00;5099739;27;45417;-56
2022/07/12 07:35:51;;;;;;;;;8.60;7.80;;;;;39.85;24.98;101945.13;5100515;27;46184;-54
2022/07/12 07:38:17;;;;;;;;;5.80;5.80;;;;;41.05;22.54;101944.16;5100591;27;45486;-57
2022/07/12 07:40:42;;;;;;;;;7.80;5.80;;;;;42.00;20.95;101943.41;5100704;27;45433;-58
2022/07/12 07:43:08;;;;;;;;;7.50;6.00;;;;;42.56;21.14;101949.88;5086843;27;45463;-57
2022/07/12 07:45:33;;;;;;;;;4.75;4.75;;;;;43.39;19.60;101942.00;5094303;27;47208;-58
2022/07/12 07:47:59;;;;;;;;;6.25;4.25;;;;;44.10;18.77;101943.84;5093546;27;45502;-58
2022/07/12 07:50:24;;;;;;;;;6.00;6.00;;;;;44.50;20.45;101949.66;5093562;27;45485;-57
2022/07/12 07:52:51;;;;;;;;;7.00;5.00;;;;;45.14;17.80;101943.38;5093960;27;45445;-55
2022/07/12 07:55:17;;;;;;;;;5.80;5.80;;;;;45.70;16.93;101937.00;5096878;27;46276;-57
2022/07/12 07:57:42;;;;;;;;;6.00;5.60;;;;;46.33;17.28;101939.97;5096477;27;45514;-58
2022/07/12 08:00:08;;;;;;;;;5.00;5.00;;;;;46.49;16.27;101952.06;5096864;27;45464;-57
2022/07/12 08:02:33;;;;;;;;;6.50;5.25;;;;;47.00;15.49;101949.31;5094974;27;45380;-56
2022/07/12 08:04:59;;;;;;;;;4.00;4.00;;;;;47.56;17.23;101964.19;5096673;27;46199;-56
2022/07/12 08:07:24;;;;;;;;;6.50;5.00;;;;;47.64;17.10;101943.44;5112236;27;45451;-56
2022/07/12 08:09:49;;;;;;;;;7.25;6.00;;;;;47.91;15.02;101962.09;5096923;27;45851;-56
2022/07/12 08:12:15;;;;;;;;;6.00;5.00;;;;;48.35;16.31;101947.63;5097413;27;45833;-57
2022/07/12 08:14:40;;;;;;;;;5.50;4.50;;;;;48.34;14.88;101948.81;5096430;27;46063;-56
2022/07/12 08:17:05;;;;;;;;;4.75;4.75;;;;;48.91;15.05;101948.94;5096644;27;45377;-56
2022/07/12 08:19:31;;;;;;;;;4.75;4.75;;;;;49.40;13.72;101954.47;5096717;27;45477;-56
2022/07/12 08:21:56;;;;;;;;;6.25;4.75;;;;;49.98;13.59;101949.50;5097139;27;45450;-56
2022/07/12 08:24:22;;;;;;;;;7.50;4.00;;;;;50.25;13.86;101956.66;5096487;27;45820;-56
2022/07/12 08:26:48;;;;;;;;;4.25;4.25;;;;;49.90;14.29;101960.75;5096581;27;45435;-56
2022/07/12 08:29:13;;;;;;;;;5.00;4.40;;;;;49.77;14.22;101964.22;5096150;27;45540;-56
2022/07/12 08:31:39;;;;;;;;;5.50;5.50;;;;;49.92;13.08;101955.50;5097042;27;45720;-55
2022/07/12 08:34:04;;;;;;;;;8.75;8.75;;;;;50.52;13.27;101962.97;5094577;27;47122;-56
2022/07/12 08:36:30;;;;;;;;;7.50;4.75;;;;;50.77;13.98;101943.31;5095309;27;45469;-56
2022/07/12 08:38:55;;;;;;;;;8.00;6.25;;;;;50.84;12.73;101954.69;5094936;27;45587;-55
2022/07/12 08:41:20;;;;;;;;;5.00;5.00;;;;;51.31;12.47;101960.66;5096319;27;45417;-56
2022/07/12 08:43:46;;;;;;;;;3.75;3.75;;;;;51.90;12.57;101958.47;5095311;27;45473;-56
2022/07/12 08:46:13;;;;;;;;;4.75;4.75;;;;;51.97;13.17;101957.66;5095112;27;46365;-57
2022/07/12 08:48:41;;;;;;;;;7.20;4.00;;;;;52.32;12.53;101954.03;5095611;27;45456;-56
2022/07/12 08:51:09;;;;;;;;;4.20;3.60;;;;;52.74;12.05;101960.91;5095609;27;45361;-57
2022/07/12 08:53:35;;;;;;;;;4.00;4.00;;;;;53.23;11.23;101959.19;5095149;27;45473;-56
2022/07/12 08:56:02;;;;;;;;;4.60;4.20;;;;;53.77;12.61;101960.53;5095267;27;45472;-57
2022/07/12 08:58:28;;;;;;;;;2.60;2.60;;;;;53.27;12.57;101957.97;5094678;27;45511;-57
2022/07/12 09:00:53;;;;;;;;;7.50;5.00;;;;;53.02;11.78;101960.88;5095725;27;45465;-55
2022/07/12 09:03:19;;;;;;;;;3.50;3.00;;;;;53.19;11.63;101962.03;5095161;27;46024;-56
2022/07/12 09:05:55;;;;;;;;;2.25;2.25;;;;;52.95;12.55;101952.34;5094377;27;45292;-56
2022/07/12 09:08:34;;;;;;;;;4.80;3.60;;;;;52.80;11.71;101956.44;5093627;27;45464;-56
2022/07/12 09:11:04;;;;;;;;;3.80;3.80;;;;;53.23;11.60;101960.00;5095299;27;45467;-57
2022/07/12 09:13:47;;;;;;;;;2.40;2.40;;;;;53.77;10.29;101954.81;5094636;27;46363;-55
2022/07/12 09:16:15;;;;;;;;;3.20;3.20;;;;;54.24;9.58;101952.50;5094199;27;45565;-57
2022/07/12 09:18:41;;;;;;;;;4.20;4.20;;;;;54.66;10.40;101943.97;5094779;27;45506;-56
2022/07/12 09:21:06;;;;;;;;;3.00;3.00;;;;;54.82;9.29;101949.88;5094887;27;45442;-58
2022/07/12 09:23:31;;;;;;;;;2.50;2.50;;;;;54.95;9.87;101948.13;5094054;27;46594;-56
2022/07/12 09:25:57;;;;;;;;;3.00;3.00;;;;;54.68;10.53;101958.59;5094858;27;45429;-56
2022/07/12 09:28:22;;;;;;;;;2.25;2.25;;;;;54.42;10.31;101958.03;5094064;27;45462;-56
2022/07/12 09:30:50;;;;;;;;;2.00;2.00;;;;;54.03;10.67;101959.16;5094311;27;46266;-56
2022/07/12 09:36:12;;;;;;;;;2.00;2.00;;;;;53.81;9.96;101958.47;5095190;27;45215;-56
2022/07/12 09:38:52;;;;;;;;;2.80;2.80;;;;;54.04;10.28;101960.78;5095865;27;45751;-56
2022/07/12 09:41:19;;;;;;;;;3.00;3.00;;;;;54.56;9.79;101952.22;5095099;27;45687;-57
2022/07/12 09:43:45;;;;;;;;;4.80;2.40;;;;;54.99;10.53;101963.16;5095675;27;45714;-57
2022/07/12 09:46:13;;;;;;;;;4.50;2.75;;;;;54.71;10.40;101963.47;5096028;27;45777;-57
2022/07/12 09:48:40;;;;;;;;;3.80;2.80;;;;;54.60;9.29;101955.03;5095208;27;45473;-56
2022/07/12 09:51:08;;;;;;;;;2.40;2.40;;;;;54.74;9.27;101948.34;5094615;27;45453;-56
2022/07/12 09:53:43;;;;;;;;;2.20;2.20;;;;;54.34;9.52;101962.16;5095372;27;45529;-56
2022/07/12 09:56:12;;;;;;;;;6.00;4.60;;;;;54.85;9.82;101951.13;5095101;27;45452;-57
2022/07/12 09:58:54;;;;;;;;;2.60;2.00;;;;;54.62;8.84;101954.59;5111408;27;45450;-57
2022/07/12 10:01:20;;;;;;;;;4.80;3.60;;;;;54.14;10.45;101952.56;5095204;27;45548;-56
2022/07/12 10:03:46;;;;;;;;;2.80;2.80;;;;;53.93;9.66;101960.03;5094962;27;46288;-56
2022/07/12 10:06:15;;;;;;;;;4.00;2.50;;;;;53.63;10.05;101963.47;5094991;27;45731;-56
2022/07/12 10:08:40;;;;;;;;;3.20;3.20;;;;;53.42;9.79;101967.22;5095181;27;45384;-56
2022/07/12 10:11:06;;;;;;;;;3.00;3.00;;;;;53.24;9.98;101966.50;5095278;27;45384;-57
2022/07/12 10:13:33;;;;;;;;;3.40;3.40;;;;;52.94;9.98;101959.28;5094114;27;46156;-57
2022/07/12 10:16:03;;;;;;;;;1.20;1.20;;;;;53.31;9.88;101958.75;5094215;27;45480;-57
2022/07/12 10:18:29;;;;;;;;;4.40;4.00;;;;;53.71;10.18;101969.94;5111045;27;45406;-57
2022/07/12 10:20:55;;;;;;;;;4.20;1.60;;;;;53.43;9.36;101965.19;5094585;27;45930;-56
2022/07/12 10:23:31;;;;;;;;;3.80;2.20;;;;;53.48;8.96;101957.03;5094940;27;45454;-56
2022/07/12 10:25:56;;;;;;;;;1.00;1.00;;;;;53.84;8.50;101954.78;5094917;27;45466;-58
2022/07/12 10:28:22;;;;;;;;;4.00;1.50;;;;;53.97;8.87;101957.16;5095136;27;45468;-59
2022/07/12 10:30:49;;;;;;;;;1.00;1.00;;;;;53.66;8.82;101959.81;5095158;27;45728;-57
2022/07/12 10:33:23;;;;;;;;;5.40;4.40;;;;;53.08;8.46;101961.25;5094633;27;45541;-59
2022/07/12 10:36:03;;;;;;;;;2.00;2.00;;;;;53.16;8.85;101956.34;5097921;27;45947;-59
2022/07/12 10:38:29;;;;;;;;;2.60;2.60;;;;;52.74;9.09;101950.34;5098212;27;45286;-58
2022/07/12 10:40:55;;;;;;;;;4.20;3.00;;;;;52.54;9.58;101951.97;5098387;27;45321;-58
2022/07/12 10:46:21;;;;;;;;;2.40;2.40;;;;;51.67;9.20;101952.28;5098065;27;45781;-58
2022/07/12 10:48:47;;;;;;;;;4.80;3.20;;;;;50.58;10.14;101949.28;5097925;27;45408;-59
2022/07/12 10:51:15;;;;;;;;;3.75;3.75;;;;;49.88;10.73;101934.06;5098040;27;45385;-56
2022/07/12 10:53:42;;;;;;;;;3.20;2.60;;;;;49.25;11.15;101951.84;5097411;27;45425;-59
2022/07/12 10:56:10;;;;;;;;;4.00;4.00;;;;;48.55;11.46;101950.38;5097615;27;45423;-57
2022/07/12 10:58:53;;;;;;;;;4.00;3.20;;;;;46.61;12.75;101953.97;5097863;27;45450;-57
2022/07/12 11:01:29;;;;;;;;;5.40;4.80;;;;;44.64;13.07;101946.56;5097973;27;45436;-57
2022/07/12 11:04:09;;;;;;;;;4.80;4.80;;;;;43.33;14.63;101949.78;5097629;27;46078;-55
2022/07/12 11:06:37;;;;;;;;;4.40;4.40;;;;;42.19;15.43;101951.44;5097624;27;45292;-56
2022/07/12 11:09:05;;;;;;;;;2.80;2.20;;;;;41.27;16.04;101943.22;5097892;27;45343;-57
2022/07/12 11:11:33;;;;;;;;;2.60;2.60;;;;;40.09;16.57;101947.59;5097898;27;45386;-59
2022/07/12 11:14:00;;;;;;;;;4.00;4.00;;;;;39.29;17.23;101947.25;5097681;27;47391;-58
2022/07/12 11:16:27;;;;;;;;;6.00;4.80;;;;;38.75;18.00;101936.94;5097393;27;45491;-58
2022/07/12 11:18:55;;;;;;;;;5.20;2.40;;;;;38.42;18.56;101935.03;5098090;27;45466;-58
2022/07/12 11:21:22;;;;;;;;;4.40;4.40;;;;;38.14;18.60;101920.25;5097683;27;45295;-57
2022/07/12 11:23:47;;;;;;;;;3.40;3.20;;;;;37.71;19.19;101925.09;5096261;27;46449;-58
2022/07/12 11:26:14;;;;;;;;;6.00;4.50;;;;;37.27;19.58;101914.34;5097647;27;45324;-58
2022/07/12 11:28:42;;;;;;;;;4.00;3.60;;;;;36.89;19.64;101937.28;5097462;27;45342;-56
2022/07/12 11:31:13;;;;;;;;;5.40;5.40;;;;;36.63;20.38;101936.75;5097546;27;45419;-57
2022/07/12 11:33:43;;;;;;;;;4.80;4.80;;;;;36.48;20.74;101936.91;5097159;27;45568;-57